createdAt,value
2018-11-26T00:00:45.681Z,111.53
2018-11-26T00:03:13.160Z,123.40
2018-11-26T00:05:40.758Z,116.57
2018-11-26T00:08:09.628Z,108.17
2018-11-26T00:10:48.613Z,102.10
2018-11-26T00:13:16.105Z,116.40
2018-11-26T00:15:44.091Z,126.07
2018-11-26T00:18:11.452Z,111.70
2018-11-26T00:20:41.236Z,126.93
2018-11-26T00:23:08.866Z,130.03
2018-11-26T00:25:36.259Z,122.73
2018-11-26T00:28:03.793Z,112.13
2018-11-26T00:30:31.832Z,109.07
2018-11-26T00:32:59.167Z,108.77
2018-11-26T00:35:26.552Z,117.23
2018-11-26T00:37:53.880Z,105.27
2018-11-26T00:40:21.253Z,95.83
2018-11-26T00:42:48.711Z,102.37
2018-11-26T00:45:16.745Z,97.93
2018-11-26T00:47:44.125Z,97.77
2018-11-26T00:50:11.454Z,98.57
2018-11-26T00:52:39.914Z,101.20
2018-11-26T00:55:09.217Z,107.60
2018-11-26T00:57:36.675Z,104.10
2018-11-26T01:00:06.349Z,108.87
2018-11-26T01:02:34.895Z,110.57
2018-11-26T01:05:02.211Z,105.27
2018-11-26T01:07:29.656Z,106.07
2018-11-26T01:09:57.030Z,106.93
2018-11-26T01:12:24.339Z,103.67
2018-11-26T01:14:51.702Z,108.50
2018-11-26T01:17:19.141Z,113.30
2018-11-26T01:19:46.475Z,114.13
2018-11-26T01:22:13.893Z,114.53
2018-11-26T01:24:41.324Z,115.20
2018-11-26T01:27:08.672Z,119.27
2018-11-26T01:29:36.060Z,108.63
2018-11-26T01:32:03.413Z,110.07
2018-11-26T01:34:30.781Z,106.73
2018-11-26T01:36:58.221Z,108.20
2018-11-26T01:39:25.567Z,107.73
2018-11-26T01:41:52.886Z,102.50
2018-11-26T01:44:20.224Z,111.30
2018-11-26T01:46:47.569Z,116.30
2018-11-26T01:49:14.915Z,100.17
2018-11-26T01:51:42.202Z,108.00
2018-11-26T01:54:09.703Z,113.50
2018-11-26T01:56:37.048Z,108.27
2018-11-26T01:59:04.454Z,108.33
2018-11-26T02:01:31.796Z,117.43
2018-11-26T02:03:59.099Z,115.60
2018-11-26T02:06:26.446Z,112.23
2018-11-26T02:08:53.752Z,103.37
2018-11-26T02:11:21.204Z,110.77
2018-11-26T02:13:48.542Z,103.57
2018-11-26T02:16:15.986Z,112.93
2018-11-26T02:18:43.332Z,96.17
2018-11-26T02:21:10.701Z,90.60
2018-11-26T02:23:38.654Z,98.87
2018-11-26T02:26:06.205Z,87.80
2018-11-26T02:28:34.135Z,90.83
2018-11-26T02:31:01.529Z,78.53
2018-11-26T02:33:28.853Z,81.13
2018-11-26T02:35:56.187Z,77.03
2018-11-26T02:38:23.545Z,71.13
2018-11-26T02:40:50.884Z,77.83
2018-11-26T02:43:18.262Z,75.37
2018-11-26T02:45:45.664Z,74.57
2018-11-26T02:48:13.766Z,79.50
2018-11-26T02:50:41.579Z,63.20
2018-11-26T02:53:08.953Z,66.70
2018-11-26T02:55:36.282Z,68.73
2018-11-26T02:58:03.618Z,67.30
2018-11-26T03:00:30.962Z,70.77
2018-11-26T03:02:58.394Z,64.83
2018-11-26T03:05:27.348Z,68.23
2018-11-26T03:07:54.794Z,70.73
2018-11-26T03:10:22.611Z,65.87
2018-11-26T03:12:49.987Z,67.33
2018-11-26T03:15:17.374Z,74.23
2018-11-26T03:17:45.879Z,70.03
2018-11-26T03:20:14.205Z,66.03
2018-11-26T03:22:41.590Z,62.33
2018-11-26T03:25:10.125Z,63.77
2018-11-26T03:27:37.540Z,64.77
2018-11-26T03:30:13.232Z,62.07
2018-11-26T03:32:40.609Z,62.73
2018-11-26T03:35:09.065Z,57.03
2018-11-26T03:37:36.378Z,59.87
2018-11-26T03:40:07.825Z,59.13
2018-11-26T03:42:35.272Z,63.43
2018-11-26T03:45:02.639Z,64.93
2018-11-26T03:47:30.007Z,57.90
2018-11-26T03:49:57.501Z,55.10
2018-11-26T03:52:24.832Z,63.10
2018-11-26T03:54:52.197Z,61.70
2018-11-26T03:57:19.711Z,61.17
2018-11-26T03:59:47.183Z,59.13
2018-11-26T04:02:14.652Z,58.77
2018-11-26T04:04:41.994Z,59.63
2018-11-26T04:07:09.341Z,56.27
2018-11-26T04:09:36.676Z,55.67
2018-11-26T04:12:04.235Z,56.30
2018-11-26T04:14:31.590Z,56.47
2018-11-26T04:17:02.303Z,61.87
2018-11-26T04:19:29.735Z,61.17
2018-11-26T04:21:57.054Z,63.00
2018-11-26T04:24:24.527Z,64.03
2018-11-26T04:26:51.987Z,60.47
2018-11-26T04:29:19.306Z,58.10
2018-11-26T04:31:46.697Z,55.67
2018-11-26T04:34:14.055Z,55.67
2018-11-26T04:36:41.393Z,56.03
2018-11-26T04:39:08.717Z,52.43
2018-11-26T04:41:36.128Z,59.17
2018-11-26T04:44:03.456Z,60.27
2018-11-26T04:46:30.904Z,56.67
2018-11-26T04:48:58.254Z,65.20
2018-11-26T04:51:25.700Z,55.47
2018-11-26T04:53:53.096Z,50.23
2018-11-26T04:56:20.512Z,46.23
2018-11-26T04:58:47.870Z,43.90
2018-11-26T05:01:15.303Z,43.17
2018-11-26T05:03:42.626Z,38.07
2018-11-26T05:06:09.956Z,39.73
2018-11-26T05:08:37.803Z,38.23
2018-11-26T05:11:05.463Z,42.30
2018-11-26T05:13:32.806Z,41.57
2018-11-26T05:16:00.184Z,42.67
2018-11-26T05:18:27.587Z,39.77
2018-11-26T05:20:54.902Z,38.10
2018-11-26T05:23:22.264Z,37.40
2018-11-26T05:25:49.595Z,40.83
2018-11-26T05:28:16.887Z,38.63
2018-11-26T05:30:44.230Z,37.20
2018-11-26T05:33:11.660Z,39.67
2018-11-26T05:35:39.085Z,42.20
2018-11-26T05:38:06.413Z,37.77
2018-11-26T05:40:33.903Z,35.90
2018-11-26T05:43:01.297Z,41.77
2018-11-26T05:45:28.736Z,41.23
2018-11-26T05:47:56.073Z,46.73
2018-11-26T05:50:23.389Z,43.57
2018-11-26T05:52:50.871Z,47.30
2018-11-26T05:55:18.305Z,46.43
2018-11-26T05:57:46.303Z,47.07
2018-11-26T06:00:22.099Z,45.07
2018-11-26T06:02:49.444Z,45.77
2018-11-26T06:05:20.602Z,50.37
2018-11-26T06:07:48.020Z,40.97
2018-11-26T06:10:15.384Z,43.57
2018-11-26T06:12:42.693Z,44.67
2018-11-26T06:15:12.364Z,40.50
2018-11-26T06:17:39.998Z,46.60
2018-11-26T06:20:09.258Z,45.23
2018-11-26T06:22:36.613Z,39.97
2018-11-26T06:25:05.623Z,41.70
2018-11-26T06:27:32.950Z,37.10
2018-11-26T06:30:00.292Z,36.37
2018-11-26T06:32:27.702Z,39.03
2018-11-26T06:34:55.012Z,36.93
2018-11-26T06:37:22.353Z,39.93
2018-11-26T06:39:49.702Z,42.67
2018-11-26T06:42:17.014Z,38.57
2018-11-26T06:44:44.354Z,45.17
2018-11-26T06:47:11.787Z,40.70
2018-11-26T06:49:39.350Z,39.87
2018-11-26T06:52:06.708Z,40.47
2018-11-26T06:54:34.213Z,40.97
2018-11-26T06:57:01.639Z,41.40
2018-11-26T06:59:29.105Z,41.97
2018-11-26T07:01:56.451Z,44.47
2018-11-26T07:04:23.793Z,38.43
2018-11-26T07:06:51.189Z,39.27
2018-11-26T07:09:18.490Z,44.33
2018-11-26T07:11:45.951Z,40.17
2018-11-26T07:14:13.273Z,45.43
2018-11-26T07:16:41.383Z,45.53
2018-11-26T07:19:08.790Z,45.03
2018-11-26T07:21:36.263Z,45.07
2018-11-26T07:24:03.591Z,44.83
2018-11-26T07:26:30.927Z,44.33
2018-11-26T07:28:58.355Z,41.20
2018-11-26T07:31:25.790Z,39.70
2018-11-26T07:33:53.225Z,44.43
2018-11-26T07:36:20.630Z,42.50
2018-11-26T07:38:48.123Z,40.90
2018-11-26T07:41:15.457Z,39.73
2018-11-26T07:43:42.873Z,41.03
2018-11-26T07:46:10.216Z,43.27
2018-11-26T07:48:37.638Z,40.73
2018-11-26T07:51:05.536Z,42.47
2018-11-26T07:53:32.937Z,40.47
2018-11-26T07:56:00.248Z,41.93
2018-11-26T07:58:27.598Z,39.47
2018-11-26T08:00:55.017Z,37.33
2018-11-26T08:03:22.529Z,37.30
2018-11-26T08:05:50.671Z,37.73
2018-11-26T08:08:18.210Z,42.17
2018-11-26T08:10:46.852Z,36.23
2018-11-26T08:13:14.366Z,40.67
2018-11-26T08:15:41.793Z,41.70
2018-11-26T08:18:09.117Z,38.70
2018-11-26T08:20:36.547Z,41.37
2018-11-26T08:23:04.268Z,33.13
2018-11-26T08:25:31.674Z,36.77
2018-11-26T08:27:59.294Z,35.37
2018-11-26T08:30:27.321Z,37.37
2018-11-26T08:32:55.971Z,34.07
2018-11-26T08:35:23.334Z,37.67
2018-11-26T08:38:01.384Z,35.00
2018-11-26T08:40:30.429Z,37.30
2018-11-26T08:43:15.349Z,34.63
2018-11-26T08:45:51.852Z,35.30
2018-11-26T08:48:30.834Z,36.77
2018-11-26T08:50:59.367Z,38.27
2018-11-26T08:53:26.875Z,33.73
2018-11-26T08:55:54.297Z,31.20
2018-11-26T08:58:21.726Z,33.50
2018-11-26T09:00:55.294Z,33.37
2018-11-26T09:03:23.756Z,33.10
2018-11-26T09:05:59.750Z,31.03
2018-11-26T09:08:27.854Z,30.77
2018-11-26T09:10:55.302Z,31.50
2018-11-26T09:13:22.647Z,33.67
2018-11-26T09:15:50.016Z,32.60
2018-11-26T09:18:17.414Z,33.60
2018-11-26T09:20:44.796Z,30.50
2018-11-26T09:23:12.173Z,32.77
2018-11-26T09:25:39.487Z,33.17
2018-11-26T09:28:06.840Z,32.73
2018-11-26T09:30:34.198Z,29.17
2018-11-26T09:33:01.660Z,34.27
2018-11-26T09:35:29.006Z,31.70
2018-11-26T09:37:56.395Z,34.23
2018-11-26T09:40:23.772Z,34.20
2018-11-26T09:42:51.118Z,30.83
2018-11-26T09:45:18.550Z,32.67
2018-11-26T09:47:46.214Z,32.73
2018-11-26T09:50:18.027Z,32.60
2018-11-26T09:52:45.540Z,32.63
2018-11-26T09:55:14.317Z,34.80
2018-11-26T09:57:41.680Z,31.63
2018-11-26T10:00:11.655Z,29.80
2018-11-26T10:02:39.705Z,32.30
2018-11-26T10:05:09.431Z,30.43
2018-11-26T10:07:36.900Z,28.67
2018-11-26T10:10:06.032Z,31.90
2018-11-26T10:12:33.941Z,33.20
2018-11-26T10:15:01.319Z,28.70
2018-11-26T10:17:28.631Z,30.67
2018-11-26T10:19:56.005Z,31.27
2018-11-26T10:22:23.441Z,30.43
2018-11-26T10:24:50.843Z,30.40
2018-11-26T10:27:18.257Z,35.20
2018-11-26T10:29:45.751Z,40.63
2018-11-26T10:32:13.138Z,37.27
2018-11-26T10:34:40.791Z,39.20
2018-11-26T10:37:08.131Z,34.70
2018-11-26T10:39:35.480Z,37.47
2018-11-26T10:42:02.927Z,34.03
2018-11-26T10:44:30.269Z,35.10
2018-11-26T10:46:57.646Z,36.90
2018-11-26T10:49:25.096Z,32.53
2018-11-26T10:51:52.556Z,39.37
2018-11-26T10:54:20.388Z,37.23
2018-11-26T10:56:47.769Z,40.47
2018-11-26T10:59:15.322Z,40.07
2018-11-26T11:01:44.390Z,37.40
2018-11-26T11:04:11.852Z,36.57
2018-11-26T11:06:39.290Z,40.87
2018-11-26T11:09:07.926Z,42.03
2018-11-26T11:11:35.280Z,45.80
2018-11-26T11:14:02.865Z,47.40
2018-11-26T11:16:30.236Z,45.10
2018-11-26T11:18:57.575Z,44.03
2018-11-26T11:21:25.146Z,47.80
2018-11-26T11:23:52.627Z,46.93
2018-11-26T11:26:20.034Z,45.80
2018-11-26T11:28:47.368Z,47.47
2018-11-26T11:31:15.274Z,44.67
2018-11-26T11:33:42.746Z,49.23
2018-11-26T11:36:10.135Z,43.67
2018-11-26T11:38:37.506Z,50.43
2018-11-26T11:41:05.889Z,50.33
2018-11-26T11:43:33.408Z,50.70
2018-11-26T11:46:00.844Z,49.50
2018-11-26T11:48:28.232Z,53.90
2018-11-26T11:50:55.549Z,50.07
2018-11-26T11:53:23.026Z,54.40
2018-11-26T11:55:50.832Z,48.87
2018-11-26T11:58:18.192Z,51.47
2018-11-26T12:00:47.091Z,48.30
2018-11-26T12:03:17.889Z,50.00
2018-11-26T12:05:45.315Z,46.07
2018-11-26T12:08:12.778Z,50.00
2018-11-26T12:10:40.222Z,50.33
2018-11-26T12:13:09.197Z,50.53
2018-11-26T12:15:38.292Z,49.70
2018-11-26T12:18:06.782Z,51.17
2018-11-26T12:20:34.533Z,46.63
2018-11-26T12:23:01.988Z,52.07
2018-11-26T12:25:29.525Z,50.77
2018-11-26T12:27:56.955Z,52.17
2018-11-26T12:30:25.652Z,50.93
2018-11-26T12:32:53.105Z,47.47
2018-11-26T12:35:20.445Z,44.67
2018-11-26T12:37:47.899Z,49.70
2018-11-26T12:42:55.239Z,47.30
2018-11-26T12:45:26.911Z,43.63
2018-11-26T12:47:54.324Z,48.03
2018-11-26T12:50:21.693Z,46.97
2018-11-26T12:52:49.963Z,46.53
2018-11-26T12:55:18.379Z,48.20
2018-11-26T12:57:46.899Z,46.67
2018-11-26T13:00:25.096Z,46.10
2018-11-26T13:03:02.243Z,49.67
2018-11-26T13:05:29.604Z,51.13
2018-11-26T13:07:56.947Z,46.43
2018-11-26T13:10:24.320Z,46.77
2018-11-26T13:12:52.298Z,46.13
2018-11-26T13:15:20.968Z,50.87
2018-11-26T13:17:48.328Z,46.17
2018-11-26T13:20:19.128Z,46.07
2018-11-26T13:22:46.588Z,45.83
2018-11-26T13:25:17.218Z,47.03
2018-11-26T13:27:48.171Z,44.50
2018-11-26T13:30:18.842Z,48.00
2018-11-26T13:32:48.394Z,48.73
2018-11-26T13:35:16.837Z,45.77
2018-11-26T13:37:44.293Z,46.03
2018-11-26T13:40:13.056Z,45.67
2018-11-26T13:42:40.799Z,41.93
2018-11-26T13:45:17.675Z,42.40
2018-11-26T13:47:45.458Z,41.43
2018-11-26T13:50:17.737Z,42.90
2018-11-26T13:52:45.099Z,45.53
2018-11-26T13:55:12.718Z,42.30
2018-11-26T13:57:40.287Z,47.00
2018-11-26T14:00:14.849Z,48.60
2018-11-26T14:02:42.308Z,50.87
2018-11-26T14:05:11.165Z,46.50
2018-11-26T14:07:38.641Z,43.87
2018-11-26T14:10:10.439Z,47.33
2018-11-26T14:12:38.094Z,41.77
2018-11-26T14:15:08.207Z,45.00
2018-11-26T14:17:35.674Z,44.53
2018-11-26T14:20:03.356Z,49.97
2018-11-26T14:22:30.839Z,45.73
2018-11-26T14:24:58.216Z,46.67
2018-11-26T14:27:25.664Z,43.70
2018-11-26T14:29:53.509Z,46.27
2018-11-26T14:32:21.266Z,45.33
2018-11-26T14:34:49.105Z,47.93
2018-11-26T14:37:16.437Z,43.73
2018-11-26T14:39:43.781Z,43.70
2018-11-26T14:42:11.161Z,64.67
2018-11-26T14:44:38.530Z,52.77
2018-11-26T14:47:06.482Z,54.47
2018-11-26T14:49:33.832Z,45.73
2018-11-26T14:52:01.269Z,53.67
2018-11-26T14:54:28.619Z,43.43
2018-11-26T14:56:56.055Z,45.50
2018-11-26T14:59:23.416Z,46.73
2018-11-26T15:01:50.877Z,42.03
2018-11-26T15:04:18.201Z,45.07
2018-11-26T15:06:45.576Z,41.37
2018-11-26T15:09:12.889Z,39.73
2018-11-26T15:11:40.344Z,44.20
2018-11-26T15:14:07.765Z,43.17
2018-11-26T15:16:35.162Z,39.27
2018-11-26T15:19:02.550Z,41.50
2018-11-26T15:21:30.606Z,37.13
2018-11-26T15:23:58.048Z,37.73
2018-11-26T15:26:28.602Z,36.77
2018-11-26T15:28:56.845Z,36.07
2018-11-26T15:31:24.172Z,35.00
2018-11-26T15:33:51.515Z,36.87
2018-11-26T15:36:18.880Z,36.67
2018-11-26T15:38:46.242Z,34.90
2018-11-26T15:41:13.618Z,35.37
2018-11-26T15:43:41.036Z,36.83
2018-11-26T15:46:09.117Z,35.27
2018-11-26T15:48:36.451Z,36.47
2018-11-26T15:51:03.792Z,40.17
2018-11-26T15:53:31.810Z,39.63
2018-11-26T15:55:59.216Z,34.47
2018-11-26T15:58:26.649Z,34.27
2018-11-26T16:00:54.158Z,35.57
2018-11-26T16:03:21.625Z,33.93
2018-11-26T16:05:49.135Z,41.07
2018-11-26T16:08:16.501Z,33.50
2018-11-26T16:10:43.819Z,41.93
2018-11-26T16:13:13.286Z,44.57
2018-11-26T16:15:42.155Z,39.60
2018-11-26T16:18:13.518Z,42.90
2018-11-26T16:20:39.813Z,35.30
2018-11-26T16:23:08.656Z,37.17
2018-11-26T16:25:37.245Z,35.70
2018-11-26T16:28:05.165Z,35.53
2018-11-26T16:30:32.679Z,30.20
2018-11-26T16:33:00.106Z,31.13
2018-11-26T16:35:29.139Z,28.90
2018-11-26T16:37:56.731Z,38.80
2018-11-26T16:40:24.251Z,34.20
2018-11-26T16:42:51.835Z,31.37
2018-11-26T16:45:21.445Z,28.47
2018-11-26T16:47:51.126Z,26.10
2018-11-26T16:50:19.634Z,27.90
2018-11-26T16:52:47.088Z,25.47
2018-11-26T16:55:15.217Z,26.87
2018-11-26T16:57:42.915Z,26.33
2018-11-26T17:00:17.365Z,26.67
2018-11-26T17:02:45.752Z,25.27
2018-11-26T17:05:17.993Z,54.97
2018-11-26T17:07:45.374Z,34.00
2018-11-26T17:10:12.728Z,32.37
2018-11-26T17:12:40.546Z,35.53
2018-11-26T17:15:12.555Z,32.13
2018-11-26T17:17:40.040Z,34.93
2018-11-26T17:20:09.360Z,28.77
2018-11-26T17:22:36.719Z,37.10
2018-11-26T17:25:05.323Z,30.70
2018-11-26T17:27:32.817Z,24.30
2018-11-26T17:30:00.322Z,21.67
2018-11-26T17:32:27.742Z,21.70
2018-11-26T17:34:55.307Z,18.93
2018-11-26T17:37:22.807Z,18.03
2018-11-26T17:39:50.173Z,19.67
2018-11-26T17:42:17.530Z,20.10
2018-11-26T17:44:45.062Z,20.77
2018-11-26T17:47:12.999Z,19.60
2018-11-26T17:49:40.389Z,19.57
2018-11-26T17:52:07.928Z,19.13
2018-11-26T17:54:35.815Z,22.13
2018-11-26T17:57:03.143Z,21.23
2018-11-26T17:59:30.957Z,20.40
2018-11-26T18:01:59.082Z,19.87
2018-11-26T18:04:26.496Z,19.90
2018-11-26T18:06:53.847Z,20.77
2018-11-26T18:09:22.869Z,20.00
2018-11-26T18:11:48.880Z,19.13
2018-11-26T18:14:16.240Z,21.50
2018-11-26T18:16:44.639Z,22.50
2018-11-26T18:19:12.064Z,19.73
2018-11-26T18:21:39.478Z,20.23
2018-11-26T18:24:07.148Z,21.83
2018-11-26T18:26:35.238Z,20.37
2018-11-26T18:29:02.938Z,21.77
2018-11-26T18:31:30.800Z,23.30
2018-11-26T18:33:58.521Z,21.93
2018-11-26T18:36:26.028Z,28.30
2018-11-26T18:38:53.352Z,26.13
2018-11-26T18:41:20.809Z,34.93
2018-11-26T18:43:48.139Z,22.27
2018-11-26T18:46:15.463Z,21.37
2018-11-26T18:48:42.936Z,24.30
2018-11-26T18:51:10.321Z,23.97
2018-11-26T18:53:37.698Z,28.50
2018-11-26T18:56:06.065Z,27.83
2018-11-26T18:58:34.594Z,26.10
2018-11-26T19:01:01.996Z,23.93
2018-11-26T19:03:29.494Z,22.87
2018-11-26T19:05:56.940Z,21.67
2018-11-26T19:08:24.525Z,22.13
2018-11-26T19:10:55.166Z,22.00
2018-11-26T19:13:24.731Z,23.37
2018-11-26T19:15:56.234Z,23.43
2018-11-26T19:18:25.807Z,22.63
2018-11-26T19:20:53.704Z,22.47
2018-11-26T19:23:21.683Z,23.00
2018-11-26T19:25:50.500Z,23.27
2018-11-26T19:28:20.471Z,19.73
2018-11-26T19:30:45.537Z,20.97
2018-11-26T19:33:12.885Z,22.90
2018-11-26T19:35:40.322Z,21.97
2018-11-26T19:38:08.046Z,22.43
2018-11-26T19:40:36.913Z,22.40
2018-11-26T19:43:04.949Z,21.37
2018-11-26T19:45:32.515Z,20.53
2018-11-26T19:48:00.013Z,17.70
2018-11-26T19:50:27.351Z,22.10
2018-11-26T19:52:54.916Z,22.57
2018-11-26T19:55:23.641Z,23.00
2018-11-26T19:57:51.650Z,21.53
2018-11-26T20:00:27.973Z,21.60
2018-11-26T20:03:13.957Z,19.47
2018-11-26T20:05:48.321Z,22.50
2018-11-26T20:08:15.704Z,18.97
2018-11-26T20:10:43.064Z,21.83
2018-11-26T20:13:10.509Z,21.60
2018-11-26T20:15:37.970Z,19.47
2018-11-26T20:18:05.962Z,21.00
2018-11-26T20:20:33.300Z,20.53
2018-11-26T20:23:00.778Z,22.23
2018-11-26T20:25:28.260Z,22.93
2018-11-26T20:27:56.112Z,39.73
2018-11-26T20:30:23.147Z,25.40
2018-11-26T20:32:50.618Z,29.27
2018-11-26T20:35:17.998Z,27.27
2018-11-26T20:37:45.493Z,28.30
2018-11-26T20:40:14.077Z,26.27
2018-11-26T20:42:48.539Z,25.77
2018-11-26T20:45:16.368Z,26.20
2018-11-26T20:47:45.253Z,21.70
2018-11-26T20:50:27.901Z,23.40
2018-11-26T20:52:56.565Z,23.00
2018-11-26T20:55:25.070Z,23.03
2018-11-26T20:57:54.129Z,27.13
2018-11-26T21:00:22.953Z,23.70
2018-11-26T21:02:52.867Z,24.03
2018-11-26T21:05:20.632Z,24.37
2018-11-26T21:07:48.377Z,23.00
2018-11-26T21:10:16.410Z,23.87
2018-11-26T21:12:44.941Z,23.70
2018-11-26T21:15:15.183Z,24.73
2018-11-26T21:17:44.275Z,27.63
2018-11-26T21:20:19.579Z,26.70
2018-11-26T21:22:48.112Z,27.73
2018-11-26T21:25:16.389Z,24.70
2018-11-26T21:27:44.771Z,28.53
2018-11-26T21:30:14.706Z,26.10
2018-11-26T21:32:43.156Z,25.07
2018-11-26T21:35:12.610Z,21.43
2018-11-26T21:37:41.335Z,19.50
2018-11-26T21:40:11.063Z,19.97
2018-11-26T21:42:38.872Z,20.83
2018-11-26T21:45:16.884Z,18.70
2018-11-26T21:47:44.620Z,20.13
2018-11-26T21:50:13.514Z,19.90
2018-11-26T21:52:41.694Z,20.10
2018-11-26T21:55:13.997Z,22.73
2018-11-26T21:57:41.852Z,19.03
2018-11-26T22:00:20.687Z,19.83
2018-11-26T22:02:49.038Z,20.07
2018-11-26T22:05:17.256Z,20.87
2018-11-26T22:07:45.313Z,18.13
2018-11-26T22:10:15.610Z,18.80
2018-11-26T22:12:45.426Z,19.67
2018-11-26T22:15:13.713Z,19.73
2018-11-26T22:17:41.787Z,18.17
2018-11-26T22:20:13.600Z,18.63
2018-11-26T22:22:41.357Z,18.23
2018-11-26T22:25:10.337Z,17.93
2018-11-26T22:27:38.598Z,19.13
2018-11-26T22:30:38.487Z,18.40
2018-11-26T22:33:06.369Z,19.20
2018-11-26T22:35:34.185Z,17.47
2018-11-26T22:38:01.915Z,20.23
2018-11-26T22:40:29.422Z,18.33
2018-11-26T22:42:56.750Z,17.27
2018-11-26T22:45:28.059Z,16.53
2018-11-26T22:48:01.960Z,18.20
2018-11-26T22:50:29.371Z,17.97
2018-11-26T22:52:56.765Z,19.03
2018-11-26T22:55:24.119Z,16.87
2018-11-26T22:57:51.502Z,16.70
2018-11-26T23:00:26.622Z,16.40
2018-11-26T23:02:55.411Z,15.80
2018-11-26T23:05:22.775Z,16.23
2018-11-26T23:07:50.177Z,15.60
2018-11-26T23:10:17.526Z,16.77
2018-11-26T23:12:44.935Z,17.20
2018-11-26T23:15:13.587Z,15.63
2018-11-26T23:17:41.361Z,15.73
2018-11-26T23:20:11.173Z,15.37
2018-11-26T23:22:39.549Z,15.87
2018-11-26T23:25:09.490Z,16.00
2018-11-26T23:27:36.835Z,15.60
2018-11-26T23:30:08.300Z,15.03
2018-11-26T23:32:35.635Z,15.10
2018-11-26T23:35:02.962Z,15.80
2018-11-26T23:37:30.425Z,17.53
2018-11-26T23:39:57.796Z,15.40
2018-11-26T23:42:25.202Z,17.13
2018-11-26T23:44:52.594Z,16.90
2018-11-26T23:47:19.948Z,15.17
2018-11-26T23:49:47.926Z,17.53
2018-11-26T23:52:15.366Z,15.53
2018-11-26T23:54:42.730Z,14.40
2018-11-26T23:57:10.228Z,17.03
2018-11-26T23:59:37.685Z,16.43
